sensor_id;sensor_type;location;lat;lon;timestamp;temperature;humidity
44513;DHT22;30219;50.588;9.504;2023-01-15T00:01:30;9.40;99.90
44513;DHT22;30219;50.588;9.504;2023-01-15T00:03:57;9.50;99.90
44513;DHT22;30219;50.588;9.504;2023-01-15T00:06:25;9.50;99.90
44513;DHT22;30219;50.588;9.504;2023-01-15T00:08:51;9.50;99.90
44513;DHT22;30219;50.588;9.504;2023-01-15T00:11:18;9.50;99.90
44513;DHT22;30219;50.588;9.504;2023-01-15T00:13:45;9.50;99.90
44513;DHT22;30219;50.588;9.504;2023-01-15T00:16:12;9.60;99.90
44513;DHT22;30219;50.588;9.504;2023-01-15T00:18:39;9.50;99.90
44513;DHT22;30219;50.588;9.504;2023-01-15T00:21:07;9.50;99.90
44513;DHT22;30219;50.588;9.504;2023-01-15T00:23:33;9.50;99.90
44513;DHT22;30219;50.588;9.504;2023-01-15T00:26:21;9.50;99.90
44513;DHT22;30219;50.588;9.504;2023-01-15T00:29:26;9.50;99.90
44513;DHT22;30219;50.588;9.504;2023-01-15T00:31:58;9.50;99.90
44513;DHT22;30219;50.588;9.504;2023-01-15T00:34:25;9.50;99.90
44513;DHT22;30219;50.588;9.504;2023-01-15T00:36:51;9.50;99.90
44513;DHT22;30219;50.588;9.504;2023-01-15T00:39:17;9.60;99.90
44513;DHT22;30219;50.588;9.504;2023-01-15T00:41:43;9.50;99.90
44513;DHT22;30219;50.588;9.504;2023-01-15T00:44:08;9.50;99.90
44513;DHT22;30219;50.588;9.504;2023-01-15T00:46:34;9.60;99.90
44513;DHT22;30219;50.588;9.504;2023-01-15T00:49:00;9.60;99.90
44513;DHT22;30219;50.588;9.504;2023-01-15T00:51:25;9.50;99.90
44513;DHT22;30219;50.588;9.504;2023-01-15T00:53:51;9.60;99.90
44513;DHT22;30219;50.588;9.504;2023-01-15T00:56:16;9.50;99.90
44513;DHT22;30219;50.588;9.504;2023-01-15T00:58:42;9.50;99.90
44513;DHT22;30219;50.588;9.504;2023-01-15T01:01:08;9.50;99.90
44513;DHT22;30219;50.588;9.504;2023-01-15T01:03:33;9.50;99.90
44513;DHT22;30219;50.588;9.504;2023-01-15T01:06:02;9.50;99.90
44513;DHT22;30219;50.588;9.504;2023-01-15T01:08:28;9.50;99.90
44513;DHT22;30219;50.588;9.504;2023-01-15T01:11:07;9.40;99.90
44513;DHT22;30219;50.588;9.504;2023-01-15T01:13:34;9.50;99.90
44513;DHT22;30219;50.588;9.504;2023-01-15T01:16:00;9.50;99.90
44513;DHT22;30219;50.588;9.504;2023-01-15T01:18:26;9.40;99.90
44513;DHT22;30219;50.588;9.504;2023-01-15T01:20:52;9.40;99.90
44513;DHT22;30219;50.588;9.504;2023-01-15T01:23:18;9.50;99.90
44513;DHT22;30219;50.588;9.504;2023-01-15T01:25:43;9.40;99.90
44513;DHT22;30219;50.588;9.504;2023-01-15T01:28:09;9.40;99.90
44513;DHT22;30219;50.588;9.504;2023-01-15T01:30:36;9.50;99.90
44513;DHT22;30219;50.588;9.504;2023-01-15T01:33:02;9.60;99.90
44513;DHT22;30219;50.588;9.504;2023-01-15T01:35:28;9.50;99.90
44513;DHT22;30219;50.588;9.504;2023-01-15T01:37:53;9.20;99.90
44513;DHT22;30219;50.588;9.504;2023-01-15T01:40:19;8.90;99.90
44513;DHT22;30219;50.588;9.504;2023-01-15T01:42:44;8.80;99.90
44513;DHT22;30219;50.588;9.504;2023-01-15T01:45:24;8.80;99.90
44513;DHT22;30219;50.588;9.504;2023-01-15T01:47:57;8.80;99.90
44513;DHT22;30219;50.588;9.504;2023-01-15T01:50:25;8.80;99.90
44513;DHT22;30219;50.588;9.504;2023-01-15T01:52:55;8.80;99.90
44513;DHT22;30219;50.588;9.504;2023-01-15T01:55:23;8.80;99.90
44513;DHT22;30219;50.588;9.504;2023-01-15T01:57:51;8.80;99.90
44513;DHT22;30219;50.588;9.504;2023-01-15T02:00:18;8.90;99.90
44513;DHT22;30219;50.588;9.504;2023-01-15T02:02:46;8.80;99.90
44513;DHT22;30219;50.588;9.504;2023-01-15T02:05:30;8.70;99.90
44513;DHT22;30219;50.588;9.504;2023-01-15T02:07:56;8.70;99.90
44513;DHT22;30219;50.588;9.504;2023-01-15T02:10:22;8.60;99.90
44513;DHT22;30219;50.588;9.504;2023-01-15T02:13:13;8.50;99.90
44513;DHT22;30219;50.588;9.504;2023-01-15T02:15:44;8.50;99.90
44513;DHT22;30219;50.588;9.504;2023-01-15T02:18:23;8.40;99.90
44513;DHT22;30219;50.588;9.504;2023-01-15T02:21:04;8.40;99.90
44513;DHT22;30219;50.588;9.504;2023-01-15T02:24:00;8.30;99.90
44513;DHT22;30219;50.588;9.504;2023-01-15T02:26:56;8.30;99.90
44513;DHT22;30219;50.588;9.504;2023-01-15T02:30:05;8.20;99.90
44513;DHT22;30219;50.588;9.504;2023-01-15T02:32:43;8.20;99.90
44513;DHT22;30219;50.588;9.504;2023-01-15T02:35:33;8.20;99.90
44513;DHT22;30219;50.588;9.504;2023-01-15T02:38:03;8.00;99.90
44513;DHT22;30219;50.588;9.504;2023-01-15T02:40:30;8.00;99.90
44513;DHT22;30219;50.588;9.504;2023-01-15T02:42:58;8.00;99.90
44513;DHT22;30219;50.588;9.504;2023-01-15T02:45:30;7.90;99.90
44513;DHT22;30219;50.588;9.504;2023-01-15T02:48:01;7.90;99.90
44513;DHT22;30219;50.588;9.504;2023-01-15T02:50:33;7.60;99.90
44513;DHT22;30219;50.588;9.504;2023-01-15T02:53:03;7.60;99.90
44513;DHT22;30219;50.588;9.504;2023-01-15T02:55:37;7.50;99.90
44513;DHT22;30219;50.588;9.504;2023-01-15T02:58:07;7.50;99.90
44513;DHT22;30219;50.588;9.504;2023-01-15T03:00:37;7.40;99.90
44513;DHT22;30219;50.588;9.504;2023-01-15T03:03:13;7.40;99.90
44513;DHT22;30219;50.588;9.504;2023-01-15T03:05:47;7.30;99.90
44513;DHT22;30219;50.588;9.504;2023-01-15T03:08:17;7.30;99.90
44513;DHT22;30219;50.588;9.504;2023-01-15T03:11:09;7.10;99.90
44513;DHT22;30219;50.588;9.504;2023-01-15T03:16:37;7.00;99.90
44513;DHT22;30219;50.588;9.504;2023-01-15T03:22:10;6.90;99.90
44513;DHT22;30219;50.588;9.504;2023-01-15T03:24:46;6.80;99.90
44513;DHT22;30219;50.588;9.504;2023-01-15T03:27:13;6.80;99.90
44513;DHT22;30219;50.588;9.504;2023-01-15T03:29:46;6.70;99.90
44513;DHT22;30219;50.588;9.504;2023-01-15T03:32:13;6.70;99.90
44513;DHT22;30219;50.588;9.504;2023-01-15T03:37:07;6.60;99.90
44513;DHT22;30219;50.588;9.504;2023-01-15T03:39:33;6.50;99.90
44513;DHT22;30219;50.588;9.504;2023-01-15T03:42:15;6.50;99.90
44513;DHT22;30219;50.588;9.504;2023-01-15T03:50:39;6.40;99.90
44513;DHT22;30219;50.588;9.504;2023-01-15T03:53:22;6.40;99.90
44513;DHT22;30219;50.588;9.504;2023-01-15T03:56:02;6.40;99.90
44513;DHT22;30219;50.588;9.504;2023-01-15T03:58:38;6.40;99.90
44513;DHT22;30219;50.588;9.504;2023-01-15T04:01:09;6.30;99.90
44513;DHT22;30219;50.588;9.504;2023-01-15T04:03:36;6.20;99.90
44513;DHT22;30219;50.588;9.504;2023-01-15T04:06:03;6.20;99.90
44513;DHT22;30219;50.588;9.504;2023-01-15T04:08:32;6.20;99.90
44513;DHT22;30219;50.588;9.504;2023-01-15T04:11:01;6.20;99.90
44513;DHT22;30219;50.588;9.504;2023-01-15T04:13:27;6.10;99.90
44513;DHT22;30219;50.588;9.504;2023-01-15T04:15:53;6.00;99.90
44513;DHT22;30219;50.588;9.504;2023-01-15T04:18:19;5.90;99.90
44513;DHT22;30219;50.588;9.504;2023-01-15T04:20:45;5.80;99.90
44513;DHT22;30219;50.588;9.504;2023-01-15T04:23:11;5.60;99.90
44513;DHT22;30219;50.588;9.504;2023-01-15T04:25:37;5.50;99.90
44513;DHT22;30219;50.588;9.504;2023-01-15T04:28:04;5.50;99.90
44513;DHT22;30219;50.588;9.504;2023-01-15T04:30:29;5.40;99.90
44513;DHT22;30219;50.588;9.504;2023-01-15T04:32:55;5.40;99.90
44513;DHT22;30219;50.588;9.504;2023-01-15T04:35:21;5.40;99.90
44513;DHT22;30219;50.588;9.504;2023-01-15T04:37:46;5.40;99.90
44513;DHT22;30219;50.588;9.504;2023-01-15T04:40:12;5.40;99.90
44513;DHT22;30219;50.588;9.504;2023-01-15T04:42:56;5.30;99.90
44513;DHT22;30219;50.588;9.504;2023-01-15T04:45:43;5.30;99.90
44513;DHT22;30219;50.588;9.504;2023-01-15T04:48:08;5.20;99.90
44513;DHT22;30219;50.588;9.504;2023-01-15T04:50:34;5.20;99.90
44513;DHT22;30219;50.588;9.504;2023-01-15T04:52:59;5.10;99.90
44513;DHT22;30219;50.588;9.504;2023-01-15T04:55:25;5.00;99.90
44513;DHT22;30219;50.588;9.504;2023-01-15T04:57:51;5.00;99.90
44513;DHT22;30219;50.588;9.504;2023-01-15T05:00:17;4.90;99.90
44513;DHT22;30219;50.588;9.504;2023-01-15T05:02:42;4.80;99.90
44513;DHT22;30219;50.588;9.504;2023-01-15T05:05:08;4.70;99.90
44513;DHT22;30219;50.588;9.504;2023-01-15T05:07:34;4.70;99.90
44513;DHT22;30219;50.588;9.504;2023-01-15T05:09:59;4.80;99.90
44513;DHT22;30219;50.588;9.504;2023-01-15T05:12:25;4.80;99.90
44513;DHT22;30219;50.588;9.504;2023-01-15T05:14:50;4.90;99.90
44513;DHT22;30219;50.588;9.504;2023-01-15T05:17:16;4.70;99.90
44513;DHT22;30219;50.588;9.504;2023-01-15T05:19:42;4.60;99.90
44513;DHT22;30219;50.588;9.504;2023-01-15T05:22:07;4.70;99.90
44513;DHT22;30219;50.588;9.504;2023-01-15T05:24:34;4.70;99.90
44513;DHT22;30219;50.588;9.504;2023-01-15T05:26:59;4.70;99.90
44513;DHT22;30219;50.588;9.504;2023-01-15T05:29:25;4.70;99.90
44513;DHT22;30219;50.588;9.504;2023-01-15T05:31:51;4.70;99.90
44513;DHT22;30219;50.588;9.504;2023-01-15T05:34:16;4.60;99.90
44513;DHT22;30219;50.588;9.504;2023-01-15T05:36:42;4.70;99.90
44513;DHT22;30219;50.588;9.504;2023-01-15T05:39:07;4.70;99.90
44513;DHT22;30219;50.588;9.504;2023-01-15T05:41:33;4.70;99.90
44513;DHT22;30219;50.588;9.504;2023-01-15T05:44:24;4.80;99.90
44513;DHT22;30219;50.588;9.504;2023-01-15T05:46:52;4.80;99.90
44513;DHT22;30219;50.588;9.504;2023-01-15T05:49:22;4.80;99.90
44513;DHT22;30219;50.588;9.504;2023-01-15T05:51:48;4.80;99.90
44513;DHT22;30219;50.588;9.504;2023-01-15T05:54:17;4.80;99.90
44513;DHT22;30219;50.588;9.504;2023-01-15T05:56:43;4.80;99.90
44513;DHT22;30219;50.588;9.504;2023-01-15T05:59:17;4.70;99.90
44513;DHT22;30219;50.588;9.504;2023-01-15T06:01:43;4.60;99.90
44513;DHT22;30219;50.588;9.504;2023-01-15T06:04:10;4.60;99.90
44513;DHT22;30219;50.588;9.504;2023-01-15T06:06:38;4.70;99.90
44513;DHT22;30219;50.588;9.504;2023-01-15T06:09:04;4.70;99.90
44513;DHT22;30219;50.588;9.504;2023-01-15T06:11:30;4.70;99.90
44513;DHT22;30219;50.588;9.504;2023-01-15T06:13:55;4.80;99.90
44513;DHT22;30219;50.588;9.504;2023-01-15T06:16:21;4.80;99.90
44513;DHT22;30219;50.588;9.504;2023-01-15T06:18:47;4.80;99.90
44513;DHT22;30219;50.588;9.504;2023-01-15T06:21:13;4.80;99.90
44513;DHT22;30219;50.588;9.504;2023-01-15T06:23:40;4.70;99.90
44513;DHT22;30219;50.588;9.504;2023-01-15T06:26:16;4.60;99.90
44513;DHT22;30219;50.588;9.504;2023-01-15T06:28:43;4.70;99.90
44513;DHT22;30219;50.588;9.504;2023-01-15T06:31:11;4.60;99.90
44513;DHT22;30219;50.588;9.504;2023-01-15T06:33:37;4.60;99.90
44513;DHT22;30219;50.588;9.504;2023-01-15T06:36:18;4.60;99.90
44513;DHT22;30219;50.588;9.504;2023-01-15T06:38:46;4.50;99.90
44513;DHT22;30219;50.588;9.504;2023-01-15T06:41:14;4.40;99.90
44513;DHT22;30219;50.588;9.504;2023-01-15T06:43:58;4.40;99.90
44513;DHT22;30219;50.588;9.504;2023-01-15T06:46:45;4.50;99.90
44513;DHT22;30219;50.588;9.504;2023-01-15T06:49:29;4.40;99.90
44513;DHT22;30219;50.588;9.504;2023-01-15T06:51:55;4.40;99.90
44513;DHT22;30219;50.588;9.504;2023-01-15T06:54:21;4.40;99.90
44513;DHT22;30219;50.588;9.504;2023-01-15T06:56:47;4.30;99.90
44513;DHT22;30219;50.588;9.504;2023-01-15T06:59:12;4.20;99.90
44513;DHT22;30219;50.588;9.504;2023-01-15T07:01:38;4.20;99.90
44513;DHT22;30219;50.588;9.504;2023-01-15T07:04:04;4.10;99.90
44513;DHT22;30219;50.588;9.504;2023-01-15T07:06:30;4.00;99.90
44513;DHT22;30219;50.588;9.504;2023-01-15T07:08:56;4.00;99.90
44513;DHT22;30219;50.588;9.504;2023-01-15T07:11:21;3.90;99.90
44513;DHT22;30219;50.588;9.504;2023-01-15T07:13:47;3.90;99.90
44513;DHT22;30219;50.588;9.504;2023-01-15T07:16:13;3.90;99.90
44513;DHT22;30219;50.588;9.504;2023-01-15T07:18:54;3.90;99.90
44513;DHT22;30219;50.588;9.504;2023-01-15T07:21:21;3.80;99.90
44513;DHT22;30219;50.588;9.504;2023-01-15T07:23:47;3.70;99.90
44513;DHT22;30219;50.588;9.504;2023-01-15T07:26:18;3.80;99.90
44513;DHT22;30219;50.588;9.504;2023-01-15T07:28:44;3.80;99.90
44513;DHT22;30219;50.588;9.504;2023-01-15T07:31:10;3.90;99.90
44513;DHT22;30219;50.588;9.504;2023-01-15T07:33:35;3.90;99.90
44513;DHT22;30219;50.588;9.504;2023-01-15T07:36:02;3.90;99.90
44513;DHT22;30219;50.588;9.504;2023-01-15T07:38:27;3.90;99.90
44513;DHT22;30219;50.588;9.504;2023-01-15T07:40:56;3.80;99.90
44513;DHT22;30219;50.588;9.504;2023-01-15T07:43:41;3.80;99.90
44513;DHT22;30219;50.588;9.504;2023-01-15T07:46:25;3.90;99.90
44513;DHT22;30219;50.588;9.504;2023-01-15T07:49:10;3.80;99.90
44513;DHT22;30219;50.588;9.504;2023-01-15T07:51:54;3.90;99.90
44513;DHT22;30219;50.588;9.504;2023-01-15T07:54:19;3.90;99.90
44513;DHT22;30219;50.588;9.504;2023-01-15T07:56:45;3.80;99.90
44513;DHT22;30219;50.588;9.504;2023-01-15T07:59:11;3.90;99.90
44513;DHT22;30219;50.588;9.504;2023-01-15T08:01:36;3.90;99.90
44513;DHT22;30219;50.588;9.504;2023-01-15T08:04:02;3.80;99.90
44513;DHT22;30219;50.588;9.504;2023-01-15T08:06:27;3.90;99.90
44513;DHT22;30219;50.588;9.504;2023-01-15T08:08:53;3.90;99.90
44513;DHT22;30219;50.588;9.504;2023-01-15T08:11:18;3.90;99.90
44513;DHT22;30219;50.588;9.504;2023-01-15T08:14:02;3.70;99.90
44513;DHT22;30219;50.588;9.504;2023-01-15T08:16:47;3.70;99.90
44513;DHT22;30219;50.588;9.504;2023-01-15T08:19:12;3.80;99.90
44513;DHT22;30219;50.588;9.504;2023-01-15T08:21:38;3.70;99.90
44513;DHT22;30219;50.588;9.504;2023-01-15T08:24:04;3.70;99.90
44513;DHT22;30219;50.588;9.504;2023-01-15T08:26:29;3.80;99.90
44513;DHT22;30219;50.588;9.504;2023-01-15T08:28:55;3.80;99.90
44513;DHT22;30219;50.588;9.504;2023-01-15T08:31:20;3.80;99.90
44513;DHT22;30219;50.588;9.504;2023-01-15T08:33:46;3.90;99.90
44513;DHT22;30219;50.588;9.504;2023-01-15T08:36:12;3.80;99.90
44513;DHT22;30219;50.588;9.504;2023-01-15T08:38:37;3.90;99.90
44513;DHT22;30219;50.588;9.504;2023-01-15T08:41:03;3.80;99.90
44513;DHT22;30219;50.588;9.504;2023-01-15T08:43:30;3.80;99.90
44513;DHT22;30219;50.588;9.504;2023-01-15T08:45:58;3.70;99.90
44513;DHT22;30219;50.588;9.504;2023-01-15T08:48:24;3.80;99.90
44513;DHT22;30219;50.588;9.504;2023-01-15T08:51:07;3.70;99.90
44513;DHT22;30219;50.588;9.504;2023-01-15T08:54:07;3.80;99.90
44513;DHT22;30219;50.588;9.504;2023-01-15T08:57:08;3.60;99.90
44513;DHT22;30219;50.588;9.504;2023-01-15T08:59:51;3.50;99.90
44513;DHT22;30219;50.588;9.504;2023-01-15T09:02:23;3.40;99.90
44513;DHT22;30219;50.588;9.504;2023-01-15T09:04:58;3.30;99.90
44513;DHT22;30219;50.588;9.504;2023-01-15T09:07:30;3.20;99.90
44513;DHT22;30219;50.588;9.504;2023-01-15T09:10:26;3.10;99.90
44513;DHT22;30219;50.588;9.504;2023-01-15T09:13:22;3.00;99.90
44513;DHT22;30219;50.588;9.504;2023-01-15T09:16:29;2.90;99.90
44513;DHT22;30219;50.588;9.504;2023-01-15T09:21:40;2.70;99.90
44513;DHT22;30219;50.588;9.504;2023-01-15T09:24:13;2.70;99.90
44513;DHT22;30219;50.588;9.504;2023-01-15T09:26:46;2.70;99.90
44513;DHT22;30219;50.588;9.504;2023-01-15T09:29:22;2.60;99.90
44513;DHT22;30219;50.588;9.504;2023-01-15T09:32:47;2.70;99.90
44513;DHT22;30219;50.588;9.504;2023-01-15T09:35:24;2.70;99.90
44513;DHT22;30219;50.588;9.504;2023-01-15T09:37:58;2.60;99.90
44513;DHT22;30219;50.588;9.504;2023-01-15T09:40:58;2.60;99.90
44513;DHT22;30219;50.588;9.504;2023-01-15T09:55:27;2.60;99.90
44513;DHT22;30219;50.588;9.504;2023-01-15T09:58:10;2.50;99.90
44513;DHT22;30219;50.588;9.504;2023-01-15T10:03:53;2.50;99.90
44513;DHT22;30219;50.588;9.504;2023-01-15T10:06:53;2.50;99.90
44513;DHT22;30219;50.588;9.504;2023-01-15T10:09:28;2.50;99.90
44513;DHT22;30219;50.588;9.504;2023-01-15T10:15:23;2.50;99.90
44513;DHT22;30219;50.588;9.504;2023-01-15T10:18:05;2.60;99.90
44513;DHT22;30219;50.588;9.504;2023-01-15T10:32:50;2.80;99.90
44513;DHT22;30219;50.588;9.504;2023-01-15T10:35:33;3.00;99.90
44513;DHT22;30219;50.588;9.504;2023-01-15T10:44:22;3.10;99.90
44513;DHT22;30219;50.588;9.504;2023-01-15T10:46:58;3.20;99.90
44513;DHT22;30219;50.588;9.504;2023-01-15T10:49:33;3.20;99.90
44513;DHT22;30219;50.588;9.504;2023-01-15T10:55:33;3.30;99.90
44513;DHT22;30219;50.588;9.504;2023-01-15T11:01:30;3.50;99.90
44513;DHT22;30219;50.588;9.504;2023-01-15T11:04:22;3.60;99.90
44513;DHT22;30219;50.588;9.504;2023-01-15T11:07:19;3.60;99.90
44513;DHT22;30219;50.588;9.504;2023-01-15T11:09:53;3.70;99.90
44513;DHT22;30219;50.588;9.504;2023-01-15T11:12:27;3.80;99.90
44513;DHT22;30219;50.588;9.504;2023-01-15T11:15:33;3.90;99.90
44513;DHT22;30219;50.588;9.504;2023-01-15T11:21:30;3.90;99.90
44513;DHT22;30219;50.588;9.504;2023-01-15T11:24:14;4.00;99.90
44513;DHT22;30219;50.588;9.504;2023-01-15T11:26:50;4.00;99.90
44513;DHT22;30219;50.588;9.504;2023-01-15T11:32:53;4.10;99.90
44513;DHT22;30219;50.588;9.504;2023-01-15T11:35:23;4.10;99.90
44513;DHT22;30219;50.588;9.504;2023-01-15T11:38:18;4.20;99.90
44513;DHT22;30219;50.588;9.504;2023-01-15T11:40:55;4.20;99.90
44513;DHT22;30219;50.588;9.504;2023-01-15T11:43:37;4.20;99.90
44513;DHT22;30219;50.588;9.504;2023-01-15T11:46:44;4.20;99.90
44513;DHT22;30219;50.588;9.504;2023-01-15T11:49:33;4.30;99.90
44513;DHT22;30219;50.588;9.504;2023-01-15T11:52:43;4.30;99.90
44513;DHT22;30219;50.588;9.504;2023-01-15T11:55:19;4.30;99.90
44513;DHT22;30219;50.588;9.504;2023-01-15T12:00:42;4.50;99.90
44513;DHT22;30219;50.588;9.504;2023-01-15T12:03:18;4.70;99.90
44513;DHT22;30219;50.588;9.504;2023-01-15T12:06:01;4.60;99.90
44513;DHT22;30219;50.588;9.504;2023-01-15T12:09:02;4.60;99.90
44513;DHT22;30219;50.588;9.504;2023-01-15T12:17:19;4.70;99.90
44513;DHT22;30219;50.588;9.504;2023-01-15T12:20:19;4.80;99.90
44513;DHT22;30219;50.588;9.504;2023-01-15T12:23:03;4.90;99.90
44513;DHT22;30219;50.588;9.504;2023-01-15T12:28:27;5.10;99.90
44513;DHT22;30219;50.588;9.504;2023-01-15T12:30:58;5.00;99.90
44513;DHT22;30219;50.588;9.504;2023-01-15T12:33:34;5.10;99.90
44513;DHT22;30219;50.588;9.504;2023-01-15T12:36:07;5.00;99.90
44513;DHT22;30219;50.588;9.504;2023-01-15T12:38:53;5.00;99.90
44513;DHT22;30219;50.588;9.504;2023-01-15T12:44:21;5.00;99.90
44513;DHT22;30219;50.588;9.504;2023-01-15T12:47:11;4.90;99.90
44513;DHT22;30219;50.588;9.504;2023-01-15T12:49:45;4.90;99.90
44513;DHT22;30219;50.588;9.504;2023-01-15T12:52:17;5.00;99.90
44513;DHT22;30219;50.588;9.504;2023-01-15T12:55:01;5.20;99.90
44513;DHT22;30219;50.588;9.504;2023-01-15T12:57:36;5.10;99.90
44513;DHT22;30219;50.588;9.504;2023-01-15T13:00:41;5.20;99.90
44513;DHT22;30219;50.588;9.504;2023-01-15T13:03:27;5.10;99.90
44513;DHT22;30219;50.588;9.504;2023-01-15T13:06:00;5.30;99.90
44513;DHT22;30219;50.588;9.504;2023-01-15T13:11:02;5.50;99.90
44513;DHT22;30219;50.588;9.504;2023-01-15T13:13:31;5.50;99.90
44513;DHT22;30219;50.588;9.504;2023-01-15T13:16:18;5.40;99.90
44513;DHT22;30219;50.588;9.504;2023-01-15T13:21:33;5.40;99.90
44513;DHT22;30219;50.588;9.504;2023-01-15T13:26:42;5.20;99.90
44513;DHT22;30219;50.588;9.504;2023-01-15T13:29:33;5.20;99.90
44513;DHT22;30219;50.588;9.504;2023-01-15T13:35:13;5.30;99.90
44513;DHT22;30219;50.588;9.504;2023-01-15T13:37:48;5.50;99.90
44513;DHT22;30219;50.588;9.504;2023-01-15T13:42:49;5.40;99.90
44513;DHT22;30219;50.588;9.504;2023-01-15T13:45:41;5.40;99.90
44513;DHT22;30219;50.588;9.504;2023-01-15T13:50:36;5.40;99.90
44513;DHT22;30219;50.588;9.504;2023-01-15T13:53:27;5.40;99.90
44513;DHT22;30219;50.588;9.504;2023-01-15T13:55:55;5.50;99.90
44513;DHT22;30219;50.588;9.504;2023-01-15T13:58:26;5.50;99.90
44513;DHT22;30219;50.588;9.504;2023-01-15T14:03:31;5.80;99.90
44513;DHT22;30219;50.588;9.504;2023-01-15T14:05:59;5.80;99.90
44513;DHT22;30219;50.588;9.504;2023-01-15T14:08:43;5.70;99.90
44513;DHT22;30219;50.588;9.504;2023-01-15T14:11:35;5.50;99.90
44513;DHT22;30219;50.588;9.504;2023-01-15T14:14:16;5.50;99.90
44513;DHT22;30219;50.588;9.504;2023-01-15T14:17:00;5.60;99.90
44513;DHT22;30219;50.588;9.504;2023-01-15T14:22:47;5.60;99.90
44513;DHT22;30219;50.588;9.504;2023-01-15T14:28:30;5.50;99.90
44513;DHT22;30219;50.588;9.504;2023-01-15T14:36:38;5.20;99.90
44513;DHT22;30219;50.588;9.504;2023-01-15T14:39:18;5.20;99.90
44513;DHT22;30219;50.588;9.504;2023-01-15T14:41:55;5.20;99.90
44513;DHT22;30219;50.588;9.504;2023-01-15T14:44:41;5.20;99.90
44513;DHT22;30219;50.588;9.504;2023-01-15T14:47:23;5.20;99.90
44513;DHT22;30219;50.588;9.504;2023-01-15T14:52:43;5.20;99.90
44513;DHT22;30219;50.588;9.504;2023-01-15T14:55:11;5.20;99.90
44513;DHT22;30219;50.588;9.504;2023-01-15T14:57:37;5.20;99.90
44513;DHT22;30219;50.588;9.504;2023-01-15T15:00:03;5.20;99.90
44513;DHT22;30219;50.588;9.504;2023-01-15T15:02:40;5.20;99.90
44513;DHT22;30219;50.588;9.504;2023-01-15T15:05:13;5.20;99.90
44513;DHT22;30219;50.588;9.504;2023-01-15T15:07:43;5.20;99.90
44513;DHT22;30219;50.588;9.504;2023-01-15T15:12:53;5.20;99.90
44513;DHT22;30219;50.588;9.504;2023-01-15T15:23:28;5.20;99.90
44513;DHT22;30219;50.588;9.504;2023-01-15T15:25:59;5.20;99.90
44513;DHT22;30219;50.588;9.504;2023-01-15T15:28:25;5.20;99.90
44513;DHT22;30219;50.588;9.504;2023-01-15T15:30:52;5.20;99.90
44513;DHT22;30219;50.588;9.504;2023-01-15T15:33:21;5.20;99.90
44513;DHT22;30219;50.588;9.504;2023-01-15T15:35:57;5.20;99.90
44513;DHT22;30219;50.588;9.504;2023-01-15T15:38:24;5.20;99.90
44513;DHT22;30219;50.588;9.504;2023-01-15T15:40:57;5.20;99.90
44513;DHT22;30219;50.588;9.504;2023-01-15T15:43:42;5.10;99.90
44513;DHT22;30219;50.588;9.504;2023-01-15T15:46:29;5.10;99.90
44513;DHT22;30219;50.588;9.504;2023-01-15T15:49:14;5.10;99.90
44513;DHT22;30219;50.588;9.504;2023-01-15T15:54:16;5.10;99.90
44513;DHT22;30219;50.588;9.504;2023-01-15T15:56:47;5.10;99.90
44513;DHT22;30219;50.588;9.504;2023-01-15T15:59:25;5.10;99.90
44513;DHT22;30219;50.588;9.504;2023-01-15T16:01:52;5.00;99.90
44513;DHT22;30219;50.588;9.504;2023-01-15T16:04:19;5.00;99.90
44513;DHT22;30219;50.588;9.504;2023-01-15T16:06:45;5.00;99.90
44513;DHT22;30219;50.588;9.504;2023-01-15T16:09:11;5.00;99.90
44513;DHT22;30219;50.588;9.504;2023-01-15T16:11:38;4.90;99.90
44513;DHT22;30219;50.588;9.504;2023-01-15T16:14:07;4.90;99.90
44513;DHT22;30219;50.588;9.504;2023-01-15T16:16:34;4.90;99.90
44513;DHT22;30219;50.588;9.504;2023-01-15T16:19:01;4.90;99.90
44513;DHT22;30219;50.588;9.504;2023-01-15T16:21:35;4.90;99.90
44513;DHT22;30219;50.588;9.504;2023-01-15T16:24:20;4.90;99.90
44513;DHT22;30219;50.588;9.504;2023-01-15T16:26:53;4.80;99.90
44513;DHT22;30219;50.588;9.504;2023-01-15T16:29:25;4.80;99.90
44513;DHT22;30219;50.588;9.504;2023-01-15T16:31:53;4.80;99.90
44513;DHT22;30219;50.588;9.504;2023-01-15T16:34:27;4.80;99.90
44513;DHT22;30219;50.588;9.504;2023-01-15T16:36:53;4.80;99.90
44513;DHT22;30219;50.588;9.504;2023-01-15T16:41:55;4.80;99.90
44513;DHT22;30219;50.588;9.504;2023-01-15T16:47:33;4.80;99.90
44513;DHT22;30219;50.588;9.504;2023-01-15T16:50:24;4.70;99.90
44513;DHT22;30219;50.588;9.504;2023-01-15T16:52:57;4.60;99.90
44513;DHT22;30219;50.588;9.504;2023-01-15T16:55:43;4.50;99.90
44513;DHT22;30219;50.588;9.504;2023-01-15T16:58:16;4.50;99.90
44513;DHT22;30219;50.588;9.504;2023-01-15T17:00:46;4.50;99.90
44513;DHT22;30219;50.588;9.504;2023-01-15T17:03:20;4.50;99.90
44513;DHT22;30219;50.588;9.504;2023-01-15T17:05:49;4.50;99.90
44513;DHT22;30219;50.588;9.504;2023-01-15T17:08:22;4.50;99.90
44513;DHT22;30219;50.588;9.504;2023-01-15T17:10:54;4.50;99.90
44513;DHT22;30219;50.588;9.504;2023-01-15T17:13:21;4.40;99.90
44513;DHT22;30219;50.588;9.504;2023-01-15T17:16:03;4.30;99.90
44513;DHT22;30219;50.588;9.504;2023-01-15T17:18:30;4.20;99.90
44513;DHT22;30219;50.588;9.504;2023-01-15T17:20:56;4.10;99.90
44513;DHT22;30219;50.588;9.504;2023-01-15T17:23:26;4.10;99.90
44513;DHT22;30219;50.588;9.504;2023-01-15T17:25:53;4.20;99.90
44513;DHT22;30219;50.588;9.504;2023-01-15T17:28:19;4.10;99.90
44513;DHT22;30219;50.588;9.504;2023-01-15T17:30:49;4.10;99.90
44513;DHT22;30219;50.588;9.504;2023-01-15T17:33:17;4.10;99.90
44513;DHT22;30219;50.588;9.504;2023-01-15T17:35:43;4.20;99.90
44513;DHT22;30219;50.588;9.504;2023-01-15T17:38:13;4.20;99.90
44513;DHT22;30219;50.588;9.504;2023-01-15T17:40:39;4.30;99.90
44513;DHT22;30219;50.588;9.504;2023-01-15T17:43:05;4.40;99.90
44513;DHT22;30219;50.588;9.504;2023-01-15T17:45:32;4.50;99.90
44513;DHT22;30219;50.588;9.504;2023-01-15T17:47:58;4.40;99.90
44513;DHT22;30219;50.588;9.504;2023-01-15T17:50:26;4.50;99.90
44513;DHT22;30219;50.588;9.504;2023-01-15T17:52:52;4.40;99.90
44513;DHT22;30219;50.588;9.504;2023-01-15T17:55:20;4.50;99.90
44513;DHT22;30219;50.588;9.504;2023-01-15T17:58:05;4.40;99.90
44513;DHT22;30219;50.588;9.504;2023-01-15T18:00:50;4.40;99.90
44513;DHT22;30219;50.588;9.504;2023-01-15T18:03:35;4.40;99.90
44513;DHT22;30219;50.588;9.504;2023-01-15T18:06:22;4.40;99.90
44513;DHT22;30219;50.588;9.504;2023-01-15T18:08:52;4.40;99.90
44513;DHT22;30219;50.588;9.504;2023-01-15T18:11:20;4.30;99.90
44513;DHT22;30219;50.588;9.504;2023-01-15T18:13:45;4.20;99.90
44513;DHT22;30219;50.588;9.504;2023-01-15T18:16:11;4.10;99.90
44513;DHT22;30219;50.588;9.504;2023-01-15T18:18:36;4.00;99.90
44513;DHT22;30219;50.588;9.504;2023-01-15T18:21:02;4.00;99.90
44513;DHT22;30219;50.588;9.504;2023-01-15T18:23:28;4.00;99.90
44513;DHT22;30219;50.588;9.504;2023-01-15T18:25:55;4.10;99.90
44513;DHT22;30219;50.588;9.504;2023-01-15T18:28:20;4.10;99.90
44513;DHT22;30219;50.588;9.504;2023-01-15T18:30:47;4.10;99.90
44513;DHT22;30219;50.588;9.504;2023-01-15T18:33:12;4.10;99.90
44513;DHT22;30219;50.588;9.504;2023-01-15T18:35:38;4.20;99.90